BAW963C EDDH-EGLL
Flight info
| Callsign | BAW963C |
|---|---|
| Flight time | 1h 18m |
| Altitude | 38000 |
| Route | WSN5G/33 WSN N125 ITMIZ DCT ABNED L980 LOGAN |
| Aircraft | A320/M-SDE3FGHIRWY/LB1 |
Departure
| Time | 2026-05-06 16:47 |
|---|---|
| Airport | Hamburg Helmut Schmidt Airport (EDDH) |
Arrival
| Time | 2026-05-06 18:05 |
|---|---|
| Airport | London Heathrow Airport (EGLL) |
| Time | Latitude | Longitude | Altitude | Speed | Heading |
|---|---|---|---|---|---|
| 2026-05-06 16:20 | 53.63005 | 10.00360 | 62 ft | 0 kts | 123° |
| 2026-05-06 16:35 | 53.63005 | 10.00359 | 62 ft | 0 kts | 123° |
| 2026-05-06 16:35 | 53.63013 | 10.00338 | 62 ft | 2 kts | 123° |
| 2026-05-06 16:35 | 53.63022 | 10.00318 | 62 ft | 2 kts | 133° |
| 2026-05-06 16:36 | 53.63033 | 10.00301 | 62 ft | 2 kts | 141° |
| 2026-05-06 16:36 | 53.63045 | 10.00286 | 62 ft | 2 kts | 149° |
| 2026-05-06 16:36 | 53.63058 | 10.00274 | 62 ft | 2 kts | 157° |
| 2026-05-06 16:36 | 53.63073 | 10.00266 | 62 ft | 2 kts | 165° |
| 2026-05-06 16:37 | 53.63087 | 10.00261 | 62 ft | 1 kts | 173° |
| 2026-05-06 16:37 | 53.63093 | 10.00260 | 62 ft | 0 kts | 175° |
| 2026-05-06 16:38 | 53.63084 | 10.00261 | 62 ft | 4 kts | 177° |
| 2026-05-06 16:39 | 53.63028 | 10.00219 | 62 ft | 10 kts | 214° |
| 2026-05-06 16:39 | 53.62961 | 10.00147 | 62 ft | 12 kts | 212° |
| 2026-05-06 16:39 | 53.62886 | 10.00067 | 62 ft | 6 kts | 212° |
| 2026-05-06 16:39 | 53.62847 | 9.99985 | 62 ft | 8 kts | 239° |
| 2026-05-06 16:40 | 53.62843 | 9.99972 | 62 ft | 0 kts | 244° |
| 2026-05-06 16:45 | 53.62831 | 9.99929 | 62 ft | 14 kts | 243° |
| 2026-05-06 16:45 | 53.62830 | 9.99772 | 62 ft | 12 kts | 330° |
| 2026-05-06 16:46 | 53.62851 | 9.99756 | 62 ft | 0 kts | 336° |
| 2026-05-06 16:46 | 53.62981 | 9.99648 | 62 ft | 56 kts | 330° |
| 2026-05-06 16:46 | 53.63542 | 9.99162 | 62 ft | 123 kts | 334° |
| 2026-05-06 16:46 | 53.64459 | 9.98388 | 242 ft | 159 kts | 335° |
| 2026-05-06 16:47 | 53.65450 | 9.97525 | 844 ft | 164 kts | 335° |
| 2026-05-06 16:47 | 53.66419 | 9.96659 | 1633 ft | 158 kts | 338° |
| 2026-05-06 16:47 | 53.67405 | 9.95797 | 2186 ft | 167 kts | 339° |
| 2026-05-06 16:47 | 53.68485 | 9.94881 | 2636 ft | 183 kts | 339° |
| 2026-05-06 16:48 | 53.69676 | 9.93874 | 3053 ft | 204 kts | 338° |
| 2026-05-06 16:48 | 53.70875 | 9.92406 | 3609 ft | 227 kts | 310° |
| 2026-05-06 16:48 | 53.71454 | 9.89898 | 4418 ft | 240 kts | 276° |
| 2026-05-06 16:48 | 53.71168 | 9.87055 | 5005 ft | 258 kts | 252° |
| 2026-05-06 16:49 | 53.70533 | 9.84119 | 5563 ft | 276 kts | 250° |
| 2026-05-06 16:49 | 53.69864 | 9.81018 | 6249 ft | 288 kts | 251° |
| 2026-05-06 16:49 | 53.69206 | 9.77848 | 7152 ft | 290 kts | 252° |
| 2026-05-06 16:49 | 53.68561 | 9.74652 | 8082 ft | 291 kts | 252° |
| 2026-05-06 16:50 | 53.67927 | 9.71449 | 8980 ft | 291 kts | 252° |
| 2026-05-06 16:50 | 53.67293 | 9.68230 | 9826 ft | 292 kts | 252° |
| 2026-05-06 16:50 | 53.66653 | 9.64985 | 10543 ft | 297 kts | 252° |
| 2026-05-06 16:50 | 53.65997 | 9.61666 | 11208 ft | 303 kts | 252° |
| 2026-05-06 16:51 | 53.65209 | 9.58381 | 11927 ft | 306 kts | 245° |
| 2026-05-06 16:51 | 53.64144 | 9.55289 | 12650 ft | 309 kts | 237° |
| 2026-05-06 16:51 | 53.62909 | 9.52339 | 13320 ft | 312 kts | 236° |
| 2026-05-06 16:51 | 53.61636 | 9.49398 | 13989 ft | 314 kts | 236° |
| 2026-05-06 16:52 | 53.60352 | 9.46437 | 14625 ft | 316 kts | 236° |
| 2026-05-06 16:52 | 53.59063 | 9.43447 | 15260 ft | 318 kts | 235° |
| 2026-05-06 16:52 | 53.57769 | 9.40440 | 15935 ft | 319 kts | 235° |
| 2026-05-06 16:52 | 53.56472 | 9.37430 | 16572 ft | 321 kts | 235° |
| 2026-05-06 16:53 | 53.55165 | 9.34402 | 17187 ft | 322 kts | 234° |
| 2026-05-06 16:53 | 53.53844 | 9.31339 | 17779 ft | 325 kts | 234° |
| 2026-05-06 16:53 | 53.52517 | 9.28268 | 18357 ft | 327 kts | 234° |
| 2026-05-06 16:53 | 53.51183 | 9.25187 | 18947 ft | 328 kts | 234° |
| 2026-05-06 16:54 | 53.49841 | 9.22088 | 19485 ft | 331 kts | 234° |
| 2026-05-06 16:54 | 53.48487 | 9.18954 | 19997 ft | 334 kts | 234° |
| 2026-05-06 16:54 | 53.47121 | 9.15797 | 20507 ft | 337 kts | 234° |
| 2026-05-06 16:54 | 53.45739 | 9.12612 | 21019 ft | 339 kts | 234° |
| 2026-05-06 16:55 | 53.44347 | 9.09414 | 21495 ft | 342 kts | 234° |
| 2026-05-06 16:55 | 53.42941 | 9.06191 | 21959 ft | 345 kts | 234° |
| 2026-05-06 16:55 | 53.41521 | 9.02952 | 22439 ft | 347 kts | 234° |
| 2026-05-06 16:55 | 53.40093 | 8.99697 | 22901 ft | 350 kts | 234° |
| 2026-05-06 16:56 | 53.38655 | 8.96415 | 23361 ft | 352 kts | 234° |
| 2026-05-06 16:56 | 53.37201 | 8.93098 | 23804 ft | 355 kts | 234° |
| 2026-05-06 16:56 | 53.35785 | 8.89730 | 24265 ft | 356 kts | 238° |
| 2026-05-06 16:56 | 53.34562 | 8.86119 | 24706 ft | 358 kts | 244° |
| 2026-05-06 16:57 | 53.33573 | 8.82308 | 25130 ft | 360 kts | 249° |
| 2026-05-06 16:57 | 53.32694 | 8.78385 | 25556 ft | 362 kts | 250° |
| 2026-05-06 16:57 | 53.31829 | 8.74423 | 25959 ft | 365 kts | 250° |
| 2026-05-06 16:57 | 53.30956 | 8.70445 | 26357 ft | 367 kts | 250° |
| 2026-05-06 16:58 | 53.30072 | 8.66441 | 26738 ft | 370 kts | 249° |
| 2026-05-06 16:58 | 53.29188 | 8.62414 | 27142 ft | 372 kts | 250° |
| 2026-05-06 16:58 | 53.28302 | 8.58365 | 27519 ft | 374 kts | 250° |
| 2026-05-06 16:58 | 53.27407 | 8.54276 | 27894 ft | 377 kts | 250° |
| 2026-05-06 16:59 | 53.26516 | 8.50169 | 28256 ft | 379 kts | 251° |
| 2026-05-06 16:59 | 53.25711 | 8.45992 | 28627 ft | 381 kts | 252° |
| 2026-05-06 16:59 | 53.24919 | 8.41779 | 28988 ft | 383 kts | 252° |
| 2026-05-06 16:59 | 53.24123 | 8.37540 | 29345 ft | 385 kts | 252° |
| 2026-05-06 17:00 | 53.23321 | 8.33288 | 29697 ft | 387 kts | 251° |
| 2026-05-06 17:00 | 53.22510 | 8.29001 | 30032 ft | 389 kts | 251° |
| 2026-05-06 17:00 | 53.21697 | 8.24715 | 30350 ft | 391 kts | 251° |
| 2026-05-06 17:00 | 53.20871 | 8.20377 | 30655 ft | 393 kts | 251° |
| 2026-05-06 17:01 | 53.20045 | 8.16038 | 30974 ft | 395 kts | 251° |
| 2026-05-06 17:01 | 53.19214 | 8.11690 | 31268 ft | 396 kts | 251° |
| 2026-05-06 17:01 | 53.18386 | 8.07309 | 31553 ft | 398 kts | 251° |
| 2026-05-06 17:01 | 53.17560 | 8.02914 | 31846 ft | 399 kts | 251° |
| 2026-05-06 17:02 | 53.16731 | 7.98517 | 32136 ft | 400 kts | 251° |
| 2026-05-06 17:02 | 53.15895 | 7.94096 | 32419 ft | 402 kts | 251° |
| 2026-05-06 17:02 | 53.15057 | 7.89677 | 32692 ft | 403 kts | 252° |
| 2026-05-06 17:02 | 53.14214 | 7.85244 | 32935 ft | 404 kts | 252° |
| 2026-05-06 17:03 | 53.13363 | 7.80786 | 33165 ft | 406 kts | 252° |
| 2026-05-06 17:03 | 53.12504 | 7.76294 | 33404 ft | 408 kts | 252° |
| 2026-05-06 17:03 | 53.11644 | 7.71809 | 33641 ft | 409 kts | 252° |
| 2026-05-06 17:03 | 53.10760 | 7.67323 | 33844 ft | 410 kts | 250° |
| 2026-05-06 17:04 | 53.09742 | 7.62905 | 34029 ft | 412 kts | 247° |
| 2026-05-06 17:04 | 53.08634 | 7.58528 | 34223 ft | 413 kts | 247° |
| 2026-05-06 17:04 | 53.07519 | 7.54143 | 34411 ft | 414 kts | 247° |
| 2026-05-06 17:04 | 53.06398 | 7.49749 | 34591 ft | 415 kts | 247° |
| 2026-05-06 17:05 | 53.05271 | 7.45342 | 34763 ft | 417 kts | 247° |
| 2026-05-06 17:05 | 53.04139 | 7.40921 | 34933 ft | 418 kts | 247° |
| 2026-05-06 17:05 | 53.03005 | 7.36497 | 35080 ft | 419 kts | 247° |
| 2026-05-06 17:05 | 53.01862 | 7.32053 | 35264 ft | 419 kts | 246° |
| 2026-05-06 17:06 | 53.00719 | 7.27613 | 35456 ft | 418 kts | 246° |
| 2026-05-06 17:06 | 52.99580 | 7.23199 | 35642 ft | 418 kts | 246° |
| 2026-05-06 17:06 | 52.98439 | 7.18788 | 35816 ft | 418 kts | 246° |
| 2026-05-06 17:06 | 52.97297 | 7.14381 | 35992 ft | 417 kts | 246° |
| 2026-05-06 17:07 | 52.96156 | 7.09984 | 36158 ft | 417 kts | 246° |
| 2026-05-06 17:07 | 52.95014 | 7.05595 | 36298 ft | 417 kts | 246° |
| 2026-05-06 17:07 | 52.93867 | 7.01194 | 36434 ft | 418 kts | 246° |
| 2026-05-06 17:07 | 52.92718 | 6.96791 | 36561 ft | 418 kts | 246° |
| 2026-05-06 17:08 | 52.91566 | 6.92386 | 36687 ft | 419 kts | 246° |
| 2026-05-06 17:08 | 52.90409 | 6.87975 | 36801 ft | 420 kts | 246° |
| 2026-05-06 17:08 | 52.89248 | 6.83552 | 36915 ft | 420 kts | 246° |
| 2026-05-06 17:08 | 52.88077 | 6.79100 | 37021 ft | 421 kts | 246° |
| 2026-05-06 17:09 | 52.86911 | 6.74680 | 37130 ft | 422 kts | 246° |
| 2026-05-06 17:09 | 52.85737 | 6.70235 | 37240 ft | 422 kts | 246° |
| 2026-05-06 17:09 | 52.84560 | 6.65786 | 37340 ft | 423 kts | 246° |
| 2026-05-06 17:10 | 52.82199 | 6.56897 | 37530 ft | 424 kts | 246° |
| 2026-05-06 17:10 | 52.79824 | 6.47985 | 37725 ft | 426 kts | 246° |
| 2026-05-06 17:11 | 52.77436 | 6.39062 | 37906 ft | 427 kts | 246° |
| 2026-05-06 17:11 | 52.75031 | 6.30111 | 37917 ft | 428 kts | 245° |
| 2026-05-06 17:12 | 52.72627 | 6.21191 | 37924 ft | 428 kts | 245° |
| 2026-05-06 17:12 | 52.70206 | 6.12244 | 37924 ft | 428 kts | 245° |
| 2026-05-06 17:13 | 52.67780 | 6.03314 | 37929 ft | 428 kts | 245° |
| 2026-05-06 17:13 | 52.65346 | 5.94393 | 37942 ft | 428 kts | 245° |
| 2026-05-06 17:14 | 52.62901 | 5.85464 | 37946 ft | 429 kts | 245° |
| 2026-05-06 17:14 | 52.60452 | 5.76560 | 37942 ft | 429 kts | 245° |
| 2026-05-06 17:15 | 52.57997 | 5.67667 | 37938 ft | 429 kts | 245° |
| 2026-05-06 17:15 | 52.55532 | 5.58769 | 37937 ft | 429 kts | 245° |
| 2026-05-06 17:16 | 52.53060 | 5.49878 | 37931 ft | 429 kts | 245° |
| 2026-05-06 17:16 | 52.50579 | 5.40989 | 37930 ft | 429 kts | 246° |
| 2026-05-06 17:17 | 52.48091 | 5.32106 | 37932 ft | 429 kts | 245° |
| 2026-05-06 17:17 | 52.45593 | 5.23224 | 37935 ft | 429 kts | 245° |
| 2026-05-06 17:18 | 52.43093 | 5.14374 | 37935 ft | 429 kts | 245° |
| 2026-05-06 17:18 | 52.40584 | 5.05522 | 37934 ft | 430 kts | 245° |
| 2026-05-06 17:19 | 52.38066 | 4.96672 | 37936 ft | 430 kts | 245° |
| 2026-05-06 17:19 | 52.35548 | 4.87853 | 37937 ft | 429 kts | 245° |
| 2026-05-06 17:20 | 52.33021 | 4.79038 | 37936 ft | 430 kts | 245° |
| 2026-05-06 17:20 | 52.30484 | 4.70220 | 37936 ft | 430 kts | 245° |
| 2026-05-06 17:21 | 52.27942 | 4.61414 | 37938 ft | 431 kts | 245° |
| 2026-05-06 17:21 | 52.25392 | 4.52615 | 37936 ft | 430 kts | 245° |
| 2026-05-06 17:22 | 52.22836 | 4.43831 | 37937 ft | 431 kts | 245° |
| 2026-05-06 17:22 | 52.20271 | 4.35047 | 37940 ft | 431 kts | 245° |
| 2026-05-06 17:23 | 52.17694 | 4.26257 | 37941 ft | 431 kts | 244° |
| 2026-05-06 17:23 | 52.15115 | 4.17491 | 37941 ft | 431 kts | 244° |
| 2026-05-06 17:24 | 52.12526 | 4.08722 | 37942 ft | 432 kts | 244° |
| 2026-05-06 17:24 | 52.09929 | 3.99955 | 37944 ft | 432 kts | 244° |
| 2026-05-06 17:25 | 52.07321 | 3.91189 | 37940 ft | 432 kts | 244° |
| 2026-05-06 17:25 | 52.04709 | 3.82444 | 37943 ft | 432 kts | 244° |
| 2026-05-06 17:26 | 52.02092 | 3.73706 | 37938 ft | 432 kts | 244° |
| 2026-05-06 17:26 | 51.99470 | 3.64985 | 37945 ft | 432 kts | 244° |
| 2026-05-06 17:27 | 51.96843 | 3.56280 | 37937 ft | 432 kts | 244° |
| 2026-05-06 17:27 | 51.94201 | 3.47559 | 37939 ft | 433 kts | 244° |
| 2026-05-06 17:28 | 51.91548 | 3.38838 | 37933 ft | 433 kts | 244° |
| 2026-05-06 17:28 | 51.88889 | 3.30117 | 37942 ft | 433 kts | 244° |
| 2026-05-06 17:29 | 51.86576 | 3.21127 | 37937 ft | 433 kts | 251° |
| 2026-05-06 17:29 | 51.84909 | 3.11766 | 37953 ft | 433 kts | 257° |
| 2026-05-06 17:30 | 51.83917 | 3.02219 | 37703 ft | 432 kts | 263° |
| 2026-05-06 17:30 | 51.83602 | 2.97425 | 37422 ft | 430 kts | 264° |
| 2026-05-06 17:30 | 51.83296 | 2.92645 | 36976 ft | 430 kts | 264° |
| 2026-05-06 17:30 | 51.82988 | 2.87857 | 36424 ft | 432 kts | 264° |
| 2026-05-06 17:31 | 51.82675 | 2.83045 | 35778 ft | 436 kts | 264° |
| 2026-05-06 17:31 | 51.82355 | 2.78175 | 35015 ft | 442 kts | 264° |
| 2026-05-06 17:31 | 51.82028 | 2.73263 | 34278 ft | 443 kts | 264° |
| 2026-05-06 17:31 | 51.81701 | 2.68364 | 33770 ft | 437 kts | 264° |
| 2026-05-06 17:32 | 51.81375 | 2.63541 | 33339 ft | 430 kts | 264° |
| 2026-05-06 17:32 | 51.81050 | 2.58800 | 32943 ft | 423 kts | 264° |
| 2026-05-06 17:32 | 51.80727 | 2.54154 | 32548 ft | 416 kts | 264° |
| 2026-05-06 17:32 | 51.80407 | 2.49568 | 32132 ft | 410 kts | 264° |
| 2026-05-06 17:33 | 51.80090 | 2.45046 | 31695 ft | 405 kts | 264° |
| 2026-05-06 17:33 | 51.79774 | 2.40577 | 31258 ft | 400 kts | 264° |
| 2026-05-06 17:33 | 51.79461 | 2.36174 | 30834 ft | 395 kts | 264° |
| 2026-05-06 17:33 | 51.79148 | 2.31814 | 30396 ft | 389 kts | 263° |
| 2026-05-06 17:34 | 51.78838 | 2.27518 | 29953 ft | 385 kts | 263° |
| 2026-05-06 17:34 | 51.78531 | 2.23264 | 29516 ft | 380 kts | 263° |
| 2026-05-06 17:34 | 51.78253 | 2.19017 | 29075 ft | 376 kts | 264° |
| 2026-05-06 17:34 | 51.78013 | 2.14852 | 28639 ft | 372 kts | 264° |
| 2026-05-06 17:35 | 51.77779 | 2.10734 | 28217 ft | 367 kts | 264° |
| 2026-05-06 17:35 | 51.77545 | 2.06669 | 27803 ft | 363 kts | 264° |
| 2026-05-06 17:35 | 51.77310 | 2.02643 | 27383 ft | 359 kts | 264° |
| 2026-05-06 17:36 | 51.76839 | 1.94731 | 26530 ft | 353 kts | 264° |
| 2026-05-06 17:36 | 51.76603 | 1.90835 | 26099 ft | 350 kts | 264° |
| 2026-05-06 17:36 | 51.76369 | 1.86994 | 25871 ft | 340 kts | 264° |
| 2026-05-06 17:36 | 51.76142 | 1.83281 | 25727 ft | 328 kts | 264° |
| 2026-05-06 17:37 | 51.75922 | 1.79702 | 25619 ft | 315 kts | 264° |
| 2026-05-06 17:37 | 51.75709 | 1.76260 | 25501 ft | 304 kts | 264° |
| 2026-05-06 17:37 | 51.75503 | 1.72938 | 25381 ft | 295 kts | 264° |
| 2026-05-06 17:37 | 51.75300 | 1.69689 | 25267 ft | 291 kts | 264° |
| 2026-05-06 17:38 | 51.75089 | 1.66454 | 25160 ft | 296 kts | 262° |
| 2026-05-06 17:38 | 51.74439 | 1.63268 | 25045 ft | 309 kts | 239° |
| 2026-05-06 17:38 | 51.73079 | 1.60455 | 24959 ft | 329 kts | 229° |
| 2026-05-06 17:38 | 51.71468 | 1.57707 | 24864 ft | 348 kts | 227° |
| 2026-05-06 17:39 | 51.69766 | 1.54909 | 24771 ft | 352 kts | 227° |
| 2026-05-06 17:39 | 51.68042 | 1.52099 | 24147 ft | 358 kts | 227° |
| 2026-05-06 17:39 | 51.66469 | 1.49003 | 23264 ft | 363 kts | 241° |
| 2026-05-06 17:39 | 51.65563 | 1.45255 | 22602 ft | 363 kts | 261° |
| 2026-05-06 17:40 | 51.65541 | 1.41255 | 22069 ft | 360 kts | 281° |
| 2026-05-06 17:40 | 51.66251 | 1.37431 | 21587 ft | 356 kts | 290° |
| 2026-05-06 17:40 | 51.67143 | 1.33737 | 21095 ft | 354 kts | 291° |
| 2026-05-06 17:40 | 51.68061 | 1.30081 | 20612 ft | 351 kts | 291° |
| 2026-05-06 17:41 | 51.68974 | 1.26457 | 20146 ft | 349 kts | 291° |
| 2026-05-06 17:41 | 51.69882 | 1.22855 | 19680 ft | 346 kts | 291° |
| 2026-05-06 17:41 | 51.70781 | 1.19284 | 19225 ft | 344 kts | 291° |
| 2026-05-06 17:41 | 51.71669 | 1.15747 | 18762 ft | 341 kts | 291° |
| 2026-05-06 17:42 | 51.72548 | 1.12226 | 18291 ft | 339 kts | 291° |
| 2026-05-06 17:42 | 51.73417 | 1.08710 | 17844 ft | 337 kts | 291° |
| 2026-05-06 17:42 | 51.74272 | 1.05221 | 17403 ft | 334 kts | 291° |
| 2026-05-06 17:42 | 51.75115 | 1.01757 | 16950 ft | 332 kts | 291° |
| 2026-05-06 17:43 | 51.75839 | 0.98254 | 16481 ft | 330 kts | 279° |
| 2026-05-06 17:43 | 51.75716 | 0.94597 | 16019 ft | 330 kts | 258° |
| 2026-05-06 17:43 | 51.75159 | 0.91011 | 15534 ft | 330 kts | 257° |
| 2026-05-06 17:43 | 51.74605 | 0.87439 | 15096 ft | 328 kts | 258° |
| 2026-05-06 17:44 | 51.74078 | 0.83895 | 14690 ft | 325 kts | 258° |
| 2026-05-06 17:44 | 51.73574 | 0.80368 | 14263 ft | 323 kts | 259° |
| 2026-05-06 17:44 | 51.73084 | 0.76854 | 13988 ft | 321 kts | 259° |
| 2026-05-06 17:44 | 51.72603 | 0.73346 | 13961 ft | 322 kts | 259° |
| 2026-05-06 17:45 | 51.72124 | 0.69820 | 13975 ft | 322 kts | 259° |
| 2026-05-06 17:45 | 51.71647 | 0.66302 | 13980 ft | 322 kts | 259° |
| 2026-05-06 17:45 | 51.71171 | 0.62787 | 13968 ft | 321 kts | 259° |
| 2026-05-06 17:45 | 51.70695 | 0.59284 | 13944 ft | 319 kts | 259° |
| 2026-05-06 17:46 | 51.70225 | 0.55831 | 13575 ft | 317 kts | 259° |
| 2026-05-06 17:46 | 51.69754 | 0.52371 | 13095 ft | 317 kts | 259° |
| 2026-05-06 17:46 | 51.69282 | 0.48911 | 12641 ft | 317 kts | 259° |
| 2026-05-06 17:46 | 51.68811 | 0.45466 | 12219 ft | 315 kts | 259° |
| 2026-05-06 17:47 | 51.68340 | 0.42031 | 11800 ft | 314 kts | 259° |
| 2026-05-06 17:47 | 51.67872 | 0.38630 | 11367 ft | 310 kts | 259° |
| 2026-05-06 17:47 | 51.67411 | 0.35284 | 10851 ft | 303 kts | 259° |
| 2026-05-06 17:47 | 51.66961 | 0.32030 | 10259 ft | 294 kts | 259° |
| 2026-05-06 17:48 | 51.66523 | 0.28853 | 9618 ft | 288 kts | 259° |
| 2026-05-06 17:48 | 51.66090 | 0.25725 | 9120 ft | 287 kts | 258° |
| 2026-05-06 17:48 | 51.65660 | 0.22624 | 8786 ft | 283 kts | 258° |
| 2026-05-06 17:48 | 51.65232 | 0.19550 | 8469 ft | 280 kts | 258° |
| 2026-05-06 17:49 | 51.64810 | 0.16501 | 8120 ft | 279 kts | 259° |
| 2026-05-06 17:49 | 51.64519 | 0.13437 | 8003 ft | 277 kts | 265° |
| 2026-05-06 17:49 | 51.64335 | 0.10335 | 7990 ft | 278 kts | 266° |
| 2026-05-06 17:49 | 51.64168 | 0.07303 | 7983 ft | 264 kts | 266° |
| 2026-05-06 17:50 | 51.64011 | 0.04434 | 7984 ft | 250 kts | 266° |
| 2026-05-06 17:50 | 51.63860 | 0.01683 | 7993 ft | 245 kts | 266° |
| 2026-05-06 17:50 | 51.63709 | -0.01060 | 7986 ft | 245 kts | 266° |
| 2026-05-06 17:50 | 51.63558 | -0.03802 | 7989 ft | 250 kts | 266° |
| 2026-05-06 17:51 | 51.63396 | -0.06744 | 7998 ft | 273 kts | 266° |
| 2026-05-06 17:51 | 51.63224 | -0.09822 | 7996 ft | 278 kts | 266° |
| 2026-05-06 17:51 | 51.63049 | -0.12912 | 7994 ft | 278 kts | 266° |
| 2026-05-06 17:51 | 51.62871 | -0.16017 | 7986 ft | 278 kts | 266° |
| 2026-05-06 17:52 | 51.62692 | -0.19128 | 7991 ft | 279 kts | 266° |
| 2026-05-06 17:52 | 51.62513 | -0.22240 | 7996 ft | 279 kts | 266° |
| 2026-05-06 17:52 | 51.62334 | -0.25330 | 7976 ft | 275 kts | 266° |
| 2026-05-06 17:52 | 51.62158 | -0.28325 | 7659 ft | 264 kts | 266° |
| 2026-05-06 17:53 | 51.61990 | -0.31205 | 7279 ft | 254 kts | 266° |
| 2026-05-06 17:53 | 51.61828 | -0.33972 | 7010 ft | 244 kts | 266° |
| 2026-05-06 17:53 | 51.61668 | -0.36686 | 6995 ft | 244 kts | 266° |
| 2026-05-06 17:53 | 51.61507 | -0.39408 | 6994 ft | 243 kts | 266° |
| 2026-05-06 17:54 | 51.61346 | -0.42118 | 6991 ft | 243 kts | 266° |
| 2026-05-06 17:54 | 51.61185 | -0.44829 | 6990 ft | 243 kts | 266° |
| 2026-05-06 17:54 | 51.61023 | -0.47539 | 6992 ft | 243 kts | 266° |
| 2026-05-06 17:54 | 51.60860 | -0.50251 | 6991 ft | 243 kts | 266° |
| 2026-05-06 17:55 | 51.60695 | -0.53045 | 7003 ft | 262 kts | 266° |
| 2026-05-06 17:55 | 51.60635 | -0.56063 | 7002 ft | 273 kts | 276° |
| 2026-05-06 17:55 | 51.60644 | -0.59105 | 6988 ft | 269 kts | 260° |
| 2026-05-06 17:55 | 51.60079 | -0.61867 | 6840 ft | 253 kts | 249° |
| 2026-05-06 17:56 | 51.59380 | -0.64403 | 6507 ft | 245 kts | 247° |
| 2026-05-06 17:56 | 51.58668 | -0.66857 | 6155 ft | 242 kts | 246° |
| 2026-05-06 17:56 | 51.57949 | -0.69297 | 5722 ft | 241 kts | 246° |
| 2026-05-06 17:56 | 51.57228 | -0.71725 | 5270 ft | 241 kts | 246° |
| 2026-05-06 17:57 | 51.56505 | -0.74143 | 4812 ft | 240 kts | 246° |
| 2026-05-06 17:57 | 51.55780 | -0.76552 | 4326 ft | 239 kts | 246° |
| 2026-05-06 17:57 | 51.55057 | -0.78938 | 4011 ft | 233 kts | 246° |
| 2026-05-06 17:57 | 51.54369 | -0.81187 | 3975 ft | 215 kts | 246° |
| 2026-05-06 17:58 | 51.53727 | -0.83269 | 3964 ft | 201 kts | 246° |
| 2026-05-06 17:58 | 51.53054 | -0.85195 | 3961 ft | 198 kts | 229° |
| 2026-05-06 17:58 | 51.51901 | -0.86346 | 3967 ft | 199 kts | 190° |
| 2026-05-06 17:58 | 51.50548 | -0.86140 | 3978 ft | 197 kts | 150° |
| 2026-05-06 17:59 | 51.49516 | -0.84751 | 3999 ft | 194 kts | 126° |
| 2026-05-06 17:59 | 51.48710 | -0.83020 | 3988 ft | 192 kts | 122° |
| 2026-05-06 17:59 | 51.48081 | -0.81168 | 3788 ft | 188 kts | 107° |
| 2026-05-06 17:59 | 51.47744 | -0.79156 | 3544 ft | 186 kts | 95° |
| 2026-05-06 18:00 | 51.47633 | -0.77102 | 3326 ft | 184 kts | 87° |
| 2026-05-06 18:00 | 51.47656 | -0.75051 | 3114 ft | 182 kts | 84° |
| 2026-05-06 18:00 | 51.47696 | -0.73028 | 2980 ft | 181 kts | 85° |
| 2026-05-06 18:00 | 51.47719 | -0.71015 | 2871 ft | 174 kts | 85° |
| 2026-05-06 18:01 | 51.47725 | -0.69133 | 2612 ft | 164 kts | 86° |
| 2026-05-06 18:01 | 51.47725 | -0.67351 | 2411 ft | 157 kts | 86° |
| 2026-05-06 18:01 | 51.47725 | -0.65591 | 2186 ft | 158 kts | 85° |
| 2026-05-06 18:01 | 51.47724 | -0.63833 | 1962 ft | 157 kts | 85° |
| 2026-05-06 18:02 | 51.47725 | -0.62090 | 1745 ft | 156 kts | 85° |
| 2026-05-06 18:02 | 51.47725 | -0.60375 | 1526 ft | 149 kts | 85° |
| 2026-05-06 18:02 | 51.47725 | -0.58791 | 1314 ft | 135 kts | 85° |
| 2026-05-06 18:02 | 51.47726 | -0.57337 | 1132 ft | 127 kts | 85° |
| 2026-05-06 18:03 | 51.47731 | -0.55925 | 977 ft | 126 kts | 85° |
| 2026-05-06 18:03 | 51.47735 | -0.54519 | 831 ft | 126 kts | 85° |
| 2026-05-06 18:03 | 51.47738 | -0.53115 | 664 ft | 126 kts | 85° |
| 2026-05-06 18:03 | 51.47727 | -0.51713 | 478 ft | 125 kts | 86° |
| 2026-05-06 18:04 | 51.47737 | -0.50320 | 317 ft | 125 kts | 84° |
| 2026-05-06 18:04 | 51.47750 | -0.48936 | 161 ft | 123 kts | 86° |
| 2026-05-06 18:04 | 51.47752 | -0.47576 | 78 ft | 117 kts | 87° |
| 2026-05-06 18:04 | 51.47758 | -0.46544 | 78 ft | 68 kts | 89° |
| 2026-05-06 18:05 | 51.47768 | -0.45787 | 78 ft | 57 kts | 85° |
| 2026-05-06 18:05 | 51.47734 | -0.45480 | 78 ft | 12 kts | 149° |
| 2026-05-06 18:05 | 51.47647 | -0.45472 | 78 ft | 16 kts | 180° |
| 2026-05-06 18:05 | 51.47597 | -0.45617 | 78 ft | 17 kts | 267° |
| 2026-05-06 18:06 | 51.47594 | -0.45803 | 78 ft | 16 kts | 268° |
| 2026-05-06 18:06 | 51.47592 | -0.45989 | 78 ft | 17 kts | 269° |
| 2026-05-06 18:06 | 51.47529 | -0.46120 | 78 ft | 15 kts | 237° |
| 2026-05-06 18:06 | 51.47512 | -0.46294 | 78 ft | 16 kts | 270° |
| 2026-05-06 18:07 | 51.47513 | -0.46485 | 78 ft | 17 kts | 269° |
| 2026-05-06 18:07 | 51.47507 | -0.46685 | 78 ft | 18 kts | 259° |
| 2026-05-06 18:07 | 51.47493 | -0.46883 | 78 ft | 17 kts | 268° |
| 2026-05-06 18:07 | 51.47493 | -0.47082 | 78 ft | 18 kts | 270° |
| 2026-05-06 18:08 | 51.47491 | -0.47290 | 78 ft | 18 kts | 269° |
| 2026-05-06 18:08 | 51.47490 | -0.47506 | 78 ft | 18 kts | 270° |
| 2026-05-06 18:08 | 51.47489 | -0.47716 | 78 ft | 17 kts | 268° |
| 2026-05-06 18:08 | 51.47486 | -0.47894 | 78 ft | 13 kts | 267° |
| 2026-05-06 18:09 | 51.47486 | -0.48053 | 78 ft | 13 kts | 271° |
| 2026-05-06 18:09 | 51.47488 | -0.48217 | 78 ft | 15 kts | 269° |
| 2026-05-06 18:09 | 51.47463 | -0.48350 | 78 ft | 10 kts | 206° |
| 2026-05-06 18:09 | 51.47389 | -0.48349 | 78 ft | 9 kts | 141° |
| 2026-05-06 18:10 | 51.47381 | -0.48247 | 78 ft | 9 kts | 89° |
| 2026-05-06 18:10 | 51.47381 | -0.48223 | 78 ft | 0 kts | 90° |
| 2026-05-06 18:10 | 51.47381 | -0.48212 | 78 ft | 0 kts | 90° |